Time;durP1;ratioP1;P1;durP2;ratioP2;P2;SDS_P1;SDS_P2;PMS_P1;PMS_P2;Temp;Humidity;BMP_temperature;BMP_pressure;BME280_temperature;BME280_humidity;BME280_pressure;Samples;Min_cycle;Max_cycle;Signal;HPM_P1;HPM_P2
2023/08/04 00:01:21;;;;;;;3.40;1.27;;;11.70;87.60;;;;;;5035520;28;20037;-85
2023/08/04 00:03:46;;;;;;;3.80;1.27;;;11.60;88.00;;;;;;5037353;28;20033;-85
2023/08/04 00:06:12;;;;;;;2.30;1.00;;;11.60;86.40;;;;;;5034142;28;20333;-85
2023/08/04 00:08:38;;;;;;;4.75;1.52;;;11.70;85.80;;;;;;5036414;28;20104;-85
2023/08/04 00:11:04;;;;;;;5.93;1.30;;;11.70;87.10;;;;;;5035941;28;20033;-86
2023/08/04 00:13:32;;;;;;;3.13;1.17;;;11.70;86.40;;;;;;5035233;28;20030;-87
2023/08/04 00:16:09;;;;;;;4.47;1.15;;;11.70;86.50;;;;;;5034100;28;20368;-87
2023/08/04 00:18:35;;;;;;;4.78;1.23;;;11.70;86.20;;;;;;5027240;28;20040;-87
2023/08/04 00:21:01;;;;;;;4.40;1.52;;;11.80;86.70;;;;;;5033142;28;20304;-87
2023/08/04 00:23:26;;;;;;;4.10;1.27;;;11.90;88.30;;;;;;5037282;28;20231;-87
2023/08/04 00:25:52;;;;;;;4.38;1.20;;;12.00;88.00;;;;;;5036010;28;20057;-87
2023/08/04 00:28:17;;;;;;;3.10;0.98;;;12.20;90.30;;;;;;5035448;28;20105;-87
2023/08/04 00:30:46;;;;;;;4.32;0.98;;;12.30;91.40;;;;;;5034631;28;20022;-87
2023/08/04 00:33:11;;;;;;;3.60;1.15;;;12.30;91.50;;;;;;5035446;28;20374;-86
2023/08/04 00:35:37;;;;;;;3.58;1.10;;;12.30;91.90;;;;;;5030699;28;20025;-85
2023/08/04 00:38:02;;;;;;;4.78;1.15;;;12.40;92.20;;;;;;5036607;28;20032;-86
2023/08/04 00:40:30;;;;;;;1.48;0.85;;;12.50;93.00;;;;;;5036577;28;20025;-87
2023/08/04 00:42:56;;;;;;;2.70;1.20;;;12.60;93.70;;;;;;5035332;28;20379;-86
2023/08/04 00:45:25;;;;;;;5.40;1.10;;;12.70;94.40;;;;;;5033313;28;20084;-85
2023/08/04 00:47:52;;;;;;;4.53;1.20;;;12.90;95.70;;;;;;5035383;28;20441;-86
2023/08/04 00:50:19;;;;;;;3.85;1.23;;;12.90;95.80;;;;;;5034698;28;20112;-86
2023/08/04 00:52:45;;;;;;;3.45;1.20;;;12.80;95.20;;;;;;5036577;28;20414;-87
2023/08/04 00:55:13;;;;;;;5.20;1.70;;;12.60;95.20;;;;;;5032667;28;20032;-86
2023/08/04 00:57:39;;;;;;;3.13;1.17;;;12.50;94.50;;;;;;5036434;28;20030;-87
2023/08/04 01:00:06;;;;;;;5.78;1.40;;;12.30;94.40;;;;;;5035532;28;20091;-87
2023/08/04 01:02:32;;;;;;;4.28;1.20;;;12.10;93.70;;;;;;5034239;28;20034;-87
2023/08/04 01:05:02;;;;;;;2.40;1.00;;;12.00;92.50;;;;;;5034155;28;20413;-86
2023/08/04 01:07:33;;;;;;;4.05;1.20;;;11.90;91.50;;;;;;5034160;28;20046;-86
2023/08/04 01:10:16;;;;;;;3.67;1.20;;;11.80;91.10;;;;;;5034167;28;20027;-87
2023/08/04 01:13:03;;;;;;;5.00;1.27;;;11.60;90.70;;;;;;5031391;28;20418;-86
2023/08/04 01:15:30;;;;;;;3.67;1.20;;;11.50;89.10;;;;;;5030726;28;20346;-88
2023/08/04 01:17:56;;;;;;;3.65;1.25;;;11.40;88.20;;;;;;5035949;28;20060;-86
2023/08/04 01:20:26;;;;;;;4.43;1.38;;;11.30;88.90;;;;;;5031516;28;20461;-86
2023/08/04 01:22:53;;;;;;;3.03;1.13;;;11.20;88.80;;;;;;5034255;28;20046;-87
2023/08/04 01:25:23;;;;;;;2.70;1.25;;;11.20;87.20;;;;;;5036067;28;20104;-87
2023/08/04 01:28:00;;;;;;;4.15;1.25;;;11.10;85.40;;;;;;5035997;28;20288;-87
2023/08/04 01:30:28;;;;;;;3.55;1.33;;;11.20;83.80;;;;;;5034982;28;20370;-87
2023/08/04 01:32:53;;;;;;;5.63;1.30;;;11.20;83.20;;;;;;5036114;28;20040;-87
2023/08/04 01:35:19;;;;;;;3.20;1.30;;;11.20;82.90;;;;;;5034235;28;20470;-86
2023/08/04 01:37:45;;;;;;;3.17;1.20;;;11.20;82.80;;;;;;5035986;28;20061;-87
2023/08/04 01:40:12;;;;;;;4.10;1.42;;;11.20;82.70;;;;;;5035963;28;20071;-87
2023/08/04 01:42:37;;;;;;;3.85;1.40;;;11.20;82.50;;;;;;5033841;28;20105;-87
2023/08/04 01:45:03;;;;;;;3.60;1.38;;;11.20;82.40;;;;;;5034946;28;20053;-87
2023/08/04 01:47:29;;;;;;;3.78;1.40;;;11.30;82.70;;;;;;5034617;28;20372;-87
2023/08/04 01:49:55;;;;;;;4.47;1.33;;;11.30;82.30;;;;;;5033425;28;20100;-86
2023/08/04 01:52:21;;;;;;;4.15;1.38;;;11.30;81.90;;;;;;5035214;28;20039;-87
2023/08/04 01:54:47;;;;;;;4.38;1.42;;;11.30;81.10;;;;;;5038239;28;20460;-88
2023/08/04 01:57:13;;;;;;;3.50;1.40;;;11.40;81.40;;;;;;5039760;28;20029;-88
2023/08/04 01:59:38;;;;;;;4.15;1.20;;;11.50;81.20;;;;;;5038491;28;20156;-87
2023/08/04 02:02:04;;;;;;;3.85;1.35;;;11.60;81.70;;;;;;5039954;28;20025;-88
2023/08/04 02:04:29;;;;;;;4.97;1.60;;;11.70;81.90;;;;;;5039413;28;20029;-86
2023/08/04 02:06:55;;;;;;;8.60;1.67;;;11.80;82.90;;;;;;5037972;28;20052;-88
2023/08/04 02:09:22;;;;;;;2.58;1.10;;;11.90;83.70;;;;;;5039312;28;20033;-88
2023/08/04 02:11:48;;;;;;;4.35;1.17;;;12.10;85.00;;;;;;5038651;28;20022;-87
2023/08/04 02:14:15;;;;;;;2.47;1.10;;;12.20;87.10;;;;;;5037310;28;20025;-89
2023/08/04 02:16:41;;;;;;;2.97;1.27;;;12.30;89.00;;;;;;5036667;28;20033;-88
2023/08/04 02:19:10;;;;;;;3.50;1.00;;;12.30;89.90;;;;;;5039548;28;20429;-87
2023/08/04 02:21:36;;;;;;;5.15;1.10;;;12.30;90.50;;;;;;5038358;28;20321;-88
2023/08/04 02:24:03;;;;;;;3.10;1.20;;;12.40;90.70;;;;;;5039230;28;20037;-88
2023/08/04 02:26:29;;;;;;;3.78;1.20;;;12.40;90.80;;;;;;5039078;28;20417;-88
2023/08/04 02:28:55;;;;;;;3.03;1.20;;;12.40;90.80;;;;;;5038308;28;20433;-87
2023/08/04 02:31:23;;;;;;;3.17;1.00;;;12.40;91.00;;;;;;5038373;28;20049;-88
2023/08/04 02:33:49;;;;;;;2.83;1.10;;;12.40;91.30;;;;;;5035822;28;20109;-88
2023/08/04 02:36:15;;;;;;;5.57;1.20;;;12.50;90.90;;;;;;5037941;28;20104;-87
2023/08/04 02:38:41;;;;;;;2.20;1.00;;;12.60;91.20;;;;;;5038883;28;20153;-88
2023/08/04 02:41:09;;;;;;;2.83;0.90;;;12.70;91.70;;;;;;5038130;28;20325;-87
2023/08/04 02:43:35;;;;;;;2.63;1.15;;;12.70;92.00;;;;;;5037883;28;20018;-88
2023/08/04 02:46:01;;;;;;;5.70;1.20;;;12.80;91.80;;;;;;5039161;28;20021;-88
2023/08/04 02:48:26;;;;;;;3.70;1.40;;;13.00;92.90;;;;;;5037651;28;20083;-88
2023/08/04 02:51:09;;;;;;;3.25;1.05;;;13.10;93.40;;;;;;5037803;28;20029;-89
2023/08/04 02:53:37;;;;;;;4.40;1.20;;;13.10;93.80;;;;;;5037769;28;20017;-87
2023/08/04 02:56:15;;;;;;;3.17;1.10;;;13.20;93.70;;;;;;5037745;28;20018;-87
2023/08/04 02:58:42;;;;;;;4.25;1.27;;;13.20;94.00;;;;;;5037516;28;20036;-85
2023/08/04 03:01:08;;;;;;;4.32;0.90;;;13.20;94.10;;;;;;5035017;28;20022;-87
2023/08/04 03:03:34;;;;;;;3.15;1.20;;;13.20;94.10;;;;;;5036944;28;20026;-86
2023/08/04 03:06:01;;;;;;;8.90;1.63;;;13.20;94.30;;;;;;5035377;28;20112;-86
2023/08/04 03:08:27;;;;;;;2.38;1.13;;;13.30;94.80;;;;;;5038222;28;20072;-88
2023/08/04 03:10:54;;;;;;;4.15;0.98;;;13.30;94.80;;;;;;5037539;28;20029;-88
2023/08/04 03:13:19;;;;;;;3.03;1.10;;;13.20;94.10;;;;;;5037338;28;20028;-89
2023/08/04 03:15:45;;;;;;;4.50;1.20;;;13.20;93.40;;;;;;5038271;28;20021;-89
2023/08/04 03:18:12;;;;;;;2.92;1.10;;;13.10;92.80;;;;;;5035311;28;20316;-88
2023/08/04 03:20:39;;;;;;;3.20;1.15;;;13.10;92.20;;;;;;5034600;28;20018;-88
2023/08/04 03:23:05;;;;;;;5.63;1.15;;;13.00;92.90;;;;;;5038220;28;20029;-88
2023/08/04 03:25:32;;;;;;;2.72;1.00;;;12.90;93.50;;;;;;5036880;28;20430;-87
2023/08/04 03:27:58;;;;;;;3.22;1.10;;;12.70;93.40;;;;;;5036624;28;20488;-87
2023/08/04 03:30:23;;;;;;;4.10;1.33;;;12.50;92.30;;;;;;5038066;28;20033;-87
2023/08/04 03:32:51;;;;;;;5.40;1.63;;;12.30;90.40;;;;;;5037082;28;20040;-86
2023/08/04 03:35:17;;;;;;;3.95;1.30;;;12.20;89.40;;;;;;5036752;28;20473;-86
2023/08/04 03:37:43;;;;;;;5.70;1.42;;;12.10;88.50;;;;;;5036280;28;20052;-87
2023/08/04 03:40:09;;;;;;;3.03;1.17;;;12.10;88.20;;;;;;5037779;28;20044;-87
2023/08/04 03:42:38;;;;;;;3.92;1.10;;;12.00;88.10;;;;;;5035936;28;20029;-87
2023/08/04 03:45:07;;;;;;;5.55;1.30;;;12.00;88.20;;;;;;5036772;28;20136;-87
2023/08/04 03:47:34;;;;;;;4.35;1.30;;;12.00;87.10;;;;;;5035610;28;20055;-86
2023/08/04 03:50:01;;;;;;;5.35;1.30;;;12.00;88.10;;;;;;5035016;28;20322;-86
2023/08/04 03:52:26;;;;;;;5.82;1.65;;;12.00;88.70;;;;;;5037631;28;20052;-87
2023/08/04 03:54:52;;;;;;;5.53;1.67;;;11.90;88.70;;;;;;5037518;28;20057;-86
2023/08/04 03:57:17;;;;;;;4.60;1.40;;;11.90;88.80;;;;;;5035702;28;20075;-87
2023/08/04 03:59:43;;;;;;;4.93;1.17;;;12.00;88.90;;;;;;5037393;28;20327;-86
2023/08/04 04:02:09;;;;;;;3.00;1.23;;;12.00;89.20;;;;;;5036517;28;20151;-86
2023/08/04 04:04:34;;;;;;;4.25;1.33;;;12.00;89.50;;;;;;5035313;28;20061;-86
2023/08/04 04:07:00;;;;;;;5.47;1.20;;;12.10;89.80;;;;;;5035221;28;20044;-87
2023/08/04 04:09:28;;;;;;;5.25;1.40;;;12.10;90.30;;;;;;5035132;28;20033;-86
2023/08/04 04:11:53;;;;;;;6.07;1.40;;;12.20;91.20;;;;;;5034952;28;20037;-87
2023/08/04 04:14:19;;;;;;;5.50;1.38;;;12.30;92.20;;;;;;5033932;28;20025;-87
2023/08/04 04:16:45;;;;;;;4.28;1.02;;;12.40;92.90;;;;;;5032975;28;20037;-86
2023/08/04 04:19:10;;;;;;;4.90;1.23;;;12.40;93.10;;;;;;5035115;28;20025;-85
2023/08/04 04:21:37;;;;;;;4.45;1.40;;;12.30;92.90;;;;;;5034453;28;20408;-86
2023/08/04 04:24:03;;;;;;;6.20;1.20;;;12.30;92.60;;;;;;5034889;28;20104;-86
2023/08/04 04:26:28;;;;;;;4.78;1.38;;;12.30;92.80;;;;;;5034013;28;20159;-86
2023/08/04 04:28:54;;;;;;;4.05;1.20;;;12.30;92.60;;;;;;5036952;28;20295;-86
2023/08/04 04:31:19;;;;;;;4.85;1.30;;;12.40;92.60;;;;;;5035986;28;20030;-86
2023/08/04 04:33:45;;;;;;;6.22;1.27;;;12.40;93.40;;;;;;5034053;28;20060;-87
2023/08/04 04:36:10;;;;;;;4.63;1.08;;;12.40;93.30;;;;;;5016042;28;20014;-86
2023/08/04 04:38:36;;;;;;;2.70;1.00;;;12.50;93.30;;;;;;5017137;28;20018;-87
2023/08/04 04:41:02;;;;;;;2.80;1.00;;;12.70;93.60;;;;;;5016803;28;20431;-86
2023/08/04 04:43:29;;;;;;;4.75;1.45;;;12.80;94.90;;;;;;5036314;28;20041;-85
2023/08/04 04:45:55;;;;;;;8.15;1.35;;;12.90;95.70;;;;;;5033480;28;20437;-86
2023/08/04 04:48:23;;;;;;;3.08;1.02;;;13.00;96.00;;;;;;5034239;28;20524;-88
2023/08/04 04:50:51;;;;;;;5.10;1.27;;;13.10;96.60;;;;;;5033797;28;20036;-88
2023/08/04 04:53:17;;;;;;;5.78;1.90;;;13.20;97.10;;;;;;5035222;28;20105;-88
2023/08/04 04:55:42;;;;;;;4.63;1.05;;;13.30;97.80;;;;;;5034362;28;20108;-87
2023/08/04 04:58:08;;;;;;;2.28;0.93;;;13.40;97.60;;;;;;5029290;28;20029;-88
2023/08/04 05:00:34;;;;;;;4.93;1.08;;;13.40;97.90;;;;;;5033898;28;20091;-87
2023/08/04 05:03:04;;;;;;;4.40;1.00;;;13.50;98.00;;;;;;5035318;28;20426;-87
2023/08/04 05:05:29;;;;;;;3.10;0.80;;;13.70;98.00;;;;;;5031352;28;20025;-87
2023/08/04 05:07:55;;;;;;;3.08;1.00;;;13.90;98.00;;;;;;5033810;28;20074;-88
2023/08/04 05:10:21;;;;;;;2.47;1.00;;;14.10;98.00;;;;;;5035007;28;20033;-88
2023/08/04 05:12:46;;;;;;;3.67;1.20;;;14.10;98.00;;;;;;5032729;28;20021;-87
2023/08/04 05:15:12;;;;;;;6.43;1.30;;;14.20;98.00;;;;;;5033262;28;20037;-86
2023/08/04 05:17:38;;;;;;;2.88;1.10;;;14.30;98.00;;;;;;5033879;28;20424;-88
2023/08/04 05:20:06;;;;;;;3.03;0.90;;;14.30;98.00;;;;;;5032122;28;20045;-88
2023/08/04 05:22:31;;;;;;;3.10;0.93;;;14.40;98.00;;;;;;5032944;28;20029;-87
2023/08/04 05:24:57;;;;;;;3.22;0.90;;;14.40;98.00;;;;;;5033552;28;20028;-87
2023/08/04 05:27:23;;;;;;;2.45;1.10;;;14.40;98.00;;;;;;5032473;28;20101;-89
2023/08/04 05:29:48;;;;;;;4.88;1.27;;;14.30;98.00;;;;;;5030921;28;20111;-88
2023/08/04 05:32:14;;;;;;;2.75;0.90;;;14.40;98.00;;;;;;5032523;28;20123;-88
2023/08/04 05:34:39;;;;;;;3.78;1.10;;;14.40;98.00;;;;;;5034558;28;21806;-88
2023/08/04 05:37:05;;;;;;;3.45;0.80;;;14.50;98.00;;;;;;5033371;28;20033;-87
2023/08/04 05:39:33;;;;;;;3.42;1.23;;;14.60;98.00;;;;;;5032877;28;20029;-88
2023/08/04 05:41:58;;;;;;;2.92;1.00;;;14.70;98.00;;;;;;5034295;28;20025;-88
2023/08/04 05:44:24;;;;;;;2.58;0.90;;;14.80;98.00;;;;;;5032215;28;20036;-88
2023/08/04 05:46:50;;;;;;;2.88;0.82;;;14.80;97.80;;;;;;5034642;28;20084;-87
2023/08/04 05:49:15;;;;;;;4.25;1.00;;;15.00;97.10;;;;;;5035407;28;20079;-88
2023/08/04 05:51:41;;;;;;;4.40;1.00;;;15.10;97.10;;;;;;5030808;28;20036;-87
2023/08/04 05:54:06;;;;;;;5.10;1.10;;;15.30;96.80;;;;;;5034269;28;20140;-88
2023/08/04 05:56:35;;;;;;;4.20;1.27;;;15.50;98.00;;;;;;5032965;28;20057;-87
2023/08/04 05:59:01;;;;;;;3.75;1.08;;;15.70;98.00;;;;;;5032554;28;20108;-87
2023/08/04 06:01:27;;;;;;;3.33;0.90;;;15.80;98.00;;;;;;5035054;28;20068;-89
2023/08/04 06:03:53;;;;;;;3.30;0.98;;;15.90;98.00;;;;;;5033106;28;20021;-89
2023/08/04 06:06:19;;;;;;;3.35;1.20;;;15.90;98.00;;;;;;5031092;28;20048;-89
2023/08/04 06:08:45;;;;;;;2.50;0.93;;;16.00;98.00;;;;;;5031869;28;20439;-88
2023/08/04 06:11:10;;;;;;;4.07;1.10;;;16.00;98.00;;;;;;5034291;28;20033;-88
2023/08/04 06:13:36;;;;;;;3.60;1.30;;;16.20;98.00;;;;;;5032240;28;20052;-89
2023/08/04 06:16:02;;;;;;;4.43;1.10;;;16.30;97.90;;;;;;5029044;28;20026;-89
2023/08/04 06:18:27;;;;;;;2.78;0.80;;;16.50;97.80;;;;;;5033500;28;20021;-88
2023/08/04 06:20:53;;;;;;;7.65;1.17;;;16.60;97.00;;;;;;5029492;28;20033;-88
2023/08/04 06:23:18;;;;;;;2.83;1.05;;;16.60;96.80;;;;;;5026169;28;20041;-88
2023/08/04 06:25:44;;;;;;;4.10;1.00;;;16.50;97.40;;;;;;5029810;28;20164;-87
2023/08/04 06:28:10;;;;;;;4.32;1.00;;;16.30;96.70;;;;;;5034678;28;20021;-88
2023/08/04 06:30:36;;;;;;;4.10;1.17;;;16.30;96.60;;;;;;5033706;28;20021;-88
2023/08/04 06:33:02;;;;;;;3.00;1.05;;;16.50;95.90;;;;;;5035052;28;20303;-89
2023/08/04 06:35:27;;;;;;;3.05;1.00;;;16.60;95.30;;;;;;5030695;28;20171;-89
2023/08/04 06:37:53;;;;;;;2.45;0.93;;;16.70;95.20;;;;;;5029433;28;20036;-88
2023/08/04 06:40:18;;;;;;;5.25;1.33;;;16.90;94.60;;;;;;5035143;28;20030;-89
2023/08/04 06:42:44;;;;;;;4.03;1.00;;;17.10;94.40;;;;;;5035332;28;20179;-89
2023/08/04 06:45:10;;;;;;;3.47;0.90;;;17.40;93.30;;;;;;5036677;28;20028;-86
2023/08/04 06:47:36;;;;;;;5.68;1.25;;;17.70;92.40;;;;;;5036753;28;20112;-88
2023/08/04 06:50:03;;;;;;;3.13;0.90;;;18.00;90.50;;;;;;5035221;28;20115;-88
2023/08/04 06:52:30;;;;;;;3.50;1.10;;;18.50;89.90;;;;;;5032586;28;20022;-88
2023/08/04 06:54:56;;;;;;;2.75;1.13;;;18.90;89.00;;;;;;5036484;28;20053;-88
2023/08/04 06:57:21;;;;;;;5.22;0.93;;;19.30;87.60;;;;;;5035784;28;20104;-89
2023/08/04 06:59:47;;;;;;;3.38;1.10;;;19.60;85.50;;;;;;5032377;28;20400;-90
2023/08/04 07:02:13;;;;;;;1.98;0.90;;;19.70;84.70;;;;;;5030286;28;20033;-90
2023/08/04 07:04:38;;;;;;;3.00;0.85;;;19.50;84.80;;;;;;5031745;28;20036;-88
2023/08/04 07:07:04;;;;;;;2.05;0.70;;;19.40;85.40;;;;;;5031921;28;20046;-88
2023/08/04 07:09:30;;;;;;;2.38;0.70;;;19.50;86.00;;;;;;5032606;28;20513;-87
2023/08/04 07:11:56;;;;;;;2.80;0.82;;;19.50;86.10;;;;;;5034406;28;20049;-87
2023/08/04 07:14:21;;;;;;;4.00;0.90;;;19.50;85.30;;;;;;5035861;28;20025;-87
2023/08/04 07:16:47;;;;;;;3.80;1.25;;;19.50;85.00;;;;;;5037001;28;20091;-88
2023/08/04 07:19:14;;;;;;;4.53;1.00;;;19.40;85.50;;;;;;5033147;28;20033;-87
2023/08/04 07:21:39;;;;;;;4.60;1.15;;;19.30;86.10;;;;;;5029990;28;20028;-87
2023/08/04 07:24:05;;;;;;;2.50;0.88;;;19.10;86.20;;;;;;5037068;28;20374;-87
2023/08/04 07:26:32;;;;;;;3.88;0.90;;;18.90;87.00;;;;;;5035326;28;20095;-87
2023/08/04 07:28:58;;;;;;;3.45;0.80;;;18.80;88.20;;;;;;5036948;28;20056;-87
2023/08/04 07:31:24;;;;;;;2.65;0.63;;;18.80;88.50;;;;;;5032608;28;20029;-87
2023/08/04 07:33:49;;;;;;;4.00;1.10;;;19.00;87.20;;;;;;5034705;28;20479;-87
2023/08/04 07:36:15;;;;;;;5.80;1.17;;;19.00;87.60;;;;;;5031100;28;20049;-88
2023/08/04 07:38:43;;;;;;;3.33;1.00;;;18.90;88.00;;;;;;5031177;28;20325;-89
2023/08/04 07:41:18;;;;;;;2.47;0.88;;;19.10;87.10;;;;;;5033159;28;20079;-86
2023/08/04 07:43:44;;;;;;;3.00;0.85;;;19.40;85.50;;;;;;5031064;28;20025;-86
2023/08/04 07:46:25;;;;;;;3.38;0.80;;;19.60;84.50;;;;;;5034025;28;20394;-87
2023/08/04 07:48:56;;;;;;;3.38;0.90;;;20.00;83.10;;;;;;5034722;28;20060;-86
2023/08/04 07:51:21;;;;;;;2.47;0.80;;;20.20;83.20;;;;;;5034387;28;20022;-86
2023/08/04 07:53:48;;;;;;;1.95;0.80;;;19.90;82.70;;;;;;5034882;28;20059;-86
2023/08/04 07:56:13;;;;;;;3.10;0.80;;;19.70;83.90;;;;;;5033892;28;20026;-86
2023/08/04 07:58:39;;;;;;;3.05;1.30;;;19.70;83.60;;;;;;5034291;28;20164;-87
2023/08/04 08:01:05;;;;;;;3.13;0.93;;;19.70;84.40;;;;;;5036613;28;20036;-86
2023/08/04 08:03:35;;;;;;;5.03;1.30;;;19.40;84.30;;;;;;5035739;28;20334;-87
2023/08/04 08:06:15;;;;;;;3.60;1.20;;;19.30;86.00;;;;;;5033567;28;20029;-86
2023/08/04 08:08:46;;;;;;;3.17;1.00;;;19.70;85.20;;;;;;5033293;28;20047;-87
2023/08/04 08:11:11;;;;;;;3.08;0.90;;;19.80;84.80;;;;;;5034208;28;20063;-87
2023/08/04 08:13:38;;;;;;;3.45;1.00;;;19.80;85.50;;;;;;5037530;28;20052;-86
2023/08/04 08:16:11;;;;;;;4.78;1.00;;;21.00;84.00;;;;;;5035094;28;20028;-86
2023/08/04 08:18:37;;;;;;;2.03;0.80;;;22.80;80.00;;;;;;5037013;28;20368;-86
2023/08/04 08:21:09;;;;;;;3.30;0.80;;;24.20;75.10;;;;;;5032774;28;20366;-86
2023/08/04 08:23:36;;;;;;;3.20;0.85;;;24.30;73.00;;;;;;5033029;28;20025;-87
2023/08/04 08:26:03;;;;;;;2.90;0.90;;;23.60;73.20;;;;;;5034372;28;20090;-85
2023/08/04 08:28:31;;;;;;;2.40;0.60;;;23.20;75.30;;;;;;5032765;28;20040;-87
2023/08/04 08:30:57;;;;;;;3.35;1.00;;;23.30;74.00;;;;;;5033736;28;20071;-87
2023/08/04 08:33:23;;;;;;;7.78;2.17;;;23.10;74.40;;;;;;5036085;28;20068;-86
2023/08/04 08:35:49;;;;;;;2.70;0.95;;;22.50;75.40;;;;;;5035502;28;20048;-88
2023/08/04 08:38:14;;;;;;;7.03;1.40;;;22.30;77.10;;;;;;5036844;28;20034;-87
2023/08/04 08:40:40;;;;;;;5.35;1.40;;;23.10;75.70;;;;;;5035840;28;20164;-87
2023/08/04 08:43:06;;;;;;;3.75;1.02;;;22.90;74.00;;;;;;5035713;28;20029;-87
2023/08/04 08:45:34;;;;;;;6.70;1.67;;;22.80;75.20;;;;;;5033586;28;20040;-86
2023/08/04 08:47:59;;;;;;;9.45;3.08;;;22.90;76.80;;;;;;5036673;28;20025;-85
2023/08/04 08:50:26;;;;;;;11.95;3.58;;;23.60;74.10;;;;;;5035381;28;20366;-87
2023/08/04 08:53:01;;;;;;;2.55;0.80;;;24.30;73.60;;;;;;5035596;28;20319;-85
2023/08/04 08:55:28;;;;;;;2.55;0.82;;;24.00;73.10;;;;;;5035619;28;20506;-86
2023/08/04 08:57:56;;;;;;;2.55;0.70;;;23.10;74.30;;;;;;5035858;28;20095;-88
2023/08/04 09:00:22;;;;;;;2.58;1.00;;;22.20;76.80;;;;;;5035376;28;20310;-87
2023/08/04 09:02:48;;;;;;;2.60;0.80;;;21.80;78.40;;;;;;5033664;28;20094;-88
2023/08/04 09:05:16;;;;;;;3.45;0.90;;;21.10;80.10;;;;;;5034413;28;20037;-88
2023/08/04 09:07:42;;;;;;;4.25;1.30;;;20.60;81.30;;;;;;5034342;28;20091;-87
2023/08/04 09:10:08;;;;;;;2.42;0.80;;;20.30;82.00;;;;;;5036468;28;20033;-87
2023/08/04 09:12:34;;;;;;;2.78;0.95;;;20.20;83.60;;;;;;5036343;28;20087;-87
2023/08/04 09:15:01;;;;;;;1.98;1.00;;;20.70;82.10;;;;;;5035592;28;20025;-86
2023/08/04 09:17:35;;;;;;;2.22;0.70;;;20.90;81.40;;;;;;5032347;28;20070;-87
2023/08/04 09:20:08;;;;;;;2.03;0.80;;;21.30;80.60;;;;;;5035144;28;20029;-87
2023/08/04 09:22:41;;;;;;;3.35;0.90;;;21.80;79.40;;;;;;5036132;28;20747;-87
2023/08/04 09:25:07;;;;;;;3.40;0.90;;;21.90;79.10;;;;;;5035653;28;20041;-87
2023/08/04 09:27:39;;;;;;;2.30;0.70;;;22.10;78.60;;;;;;5033991;28;20026;-87
2023/08/04 09:30:07;;;;;;;3.10;1.10;;;22.30;77.40;;;;;;5034349;28;20021;-87
2023/08/04 09:32:42;;;;;;;2.63;0.85;;;22.10;78.50;;;;;;5031766;28;20494;-87
2023/08/04 09:35:08;;;;;;;2.30;0.82;;;21.80;78.80;;;;;;5033766;28;20477;-86
2023/08/04 09:37:36;;;;;;;2.97;0.80;;;21.90;78.00;;;;;;5035950;28;20022;-86
2023/08/04 09:40:04;;;;;;;3.63;0.82;;;22.10;78.40;;;;;;5034535;28;20060;-87
2023/08/04 09:42:30;;;;;;;2.00;0.80;;;22.00;78.50;;;;;;5033900;28;20032;-86
2023/08/04 09:44:56;;;;;;;2.47;0.82;;;21.90;77.90;;;;;;5034242;28;20036;-87
2023/08/04 09:47:24;;;;;;;3.00;0.88;;;22.60;77.20;;;;;;5034505;28;20030;-89
2023/08/04 09:49:50;;;;;;;3.13;0.80;;;23.30;75.50;;;;;;5034635;28;20309;-87
2023/08/04 09:52:23;;;;;;;3.17;1.05;;;24.10;74.80;;;;;;5035571;28;20108;-88
2023/08/04 09:54:53;;;;;;;3.35;0.90;;;24.70;72.70;;;;;;5035946;28;20029;-88
2023/08/04 09:57:19;;;;;;;1.65;0.77;;;24.90;71.70;;;;;;5034907;28;20034;-88
2023/08/04 09:59:47;;;;;;;3.47;0.80;;;24.90;71.90;;;;;;5034987;28;20033;-88
2023/08/04 10:02:14;;;;;;;2.83;0.90;;;24.50;73.50;;;;;;5032530;28;20060;-88
2023/08/04 10:04:40;;;;;;;2.65;1.00;;;23.80;74.60;;;;;;5034926;28;20053;-88
2023/08/04 10:07:09;;;;;;;5.40;1.40;;;22.90;75.80;;;;;;5034359;28;20046;-88
2023/08/04 10:09:35;;;;;;;5.22;1.27;;;22.00;79.20;;;;;;5035819;28;20091;-87
2023/08/04 10:12:02;;;;;;;2.67;1.00;;;21.60;81.10;;;;;;5034795;28;20048;-87
2023/08/04 10:14:27;;;;;;;3.92;1.10;;;21.40;81.70;;;;;;5036190;28;20453;-87
2023/08/04 10:16:54;;;;;;;2.17;0.90;;;20.90;82.40;;;;;;5037934;28;20036;-87
2023/08/04 10:19:23;;;;;;;3.80;1.00;;;20.90;83.30;;;;;;5039579;28;20064;-86
2023/08/04 10:21:49;;;;;;;4.10;1.00;;;21.10;83.30;;;;;;5036052;28;20113;-87
2023/08/04 10:24:20;;;;;;;2.50;0.70;;;21.50;81.70;;;;;;5037757;28;20044;-87
2023/08/04 10:26:50;;;;;;;2.55;0.90;;;21.80;81.40;;;;;;5039343;28;20076;-88
2023/08/04 10:29:17;;;;;;;3.85;1.00;;;22.40;80.60;;;;;;5039484;28;20043;-88
2023/08/04 10:31:53;;;;;;;3.50;1.45;;;22.80;79.70;;;;;;5039434;28;20052;-87
2023/08/04 10:34:33;;;;;;;4.38;1.08;;;23.40;78.40;;;;;;5036819;28;20377;-88
2023/08/04 10:37:04;;;;;;;2.70;1.05;;;24.70;74.80;;;;;;5018391;28;20037;-88
2023/08/04 10:39:38;;;;;;;2.35;0.75;;;25.30;74.10;;;;;;5038992;28;20025;-85
2023/08/04 10:42:14;;;;;;;2.38;0.80;;;26.20;72.20;;;;;;5038036;28;20600;-88
2023/08/04 10:45:03;;;;;;;3.60;0.90;;;26.10;72.40;;;;;;5037220;28;20033;-88
2023/08/04 10:47:45;;;;;;;2.63;0.65;;;26.50;70.50;;;;;;5038007;28;20083;-89
2023/08/04 10:50:12;;;;;;;2.13;0.73;;;26.80;70.00;;;;;;5037843;28;20029;-87
2023/08/04 10:52:39;;;;;;;2.35;0.70;;;26.50;69.40;;;;;;5036175;28;20018;-88
2023/08/04 10:55:07;;;;;;;1.35;0.63;;;26.60;70.10;;;;;;5039027;28;20018;-86
2023/08/04 10:57:35;;;;;;;2.85;0.90;;;25.90;69.90;;;;;;5039039;28;20370;-87
2023/08/04 11:00:03;;;;;;;1.50;0.68;;;24.90;72.90;;;;;;5038788;28;20029;-87
2023/08/04 11:02:28;;;;;;;3.95;0.85;;;24.20;72.90;;;;;;5035800;28;20030;-87
2023/08/04 11:04:56;;;;;;;2.65;0.80;;;23.80;74.80;;;;;;5035232;28;20040;-88
2023/08/04 11:07:23;;;;;;;2.67;0.80;;;23.40;75.40;;;;;;5038570;28;20474;-87
2023/08/04 11:09:50;;;;;;;1.88;0.75;;;23.00;76.70;;;;;;5037772;28;20025;-86
2023/08/04 11:12:16;;;;;;;2.80;0.80;;;22.90;77.00;;;;;;5036548;28;20322;-86
2023/08/04 11:14:43;;;;;;;1.90;0.70;;;22.70;76.70;;;;;;5037249;28;20419;-87
2023/08/04 11:17:19;;;;;;;1.45;0.60;;;23.00;78.10;;;;;;5038584;28;20060;-87
2023/08/04 11:19:47;;;;;;;2.72;0.80;;;24.10;74.90;;;;;;5037290;28;20030;-88
2023/08/04 11:22:15;;;;;;;2.22;0.50;;;24.70;73.50;;;;;;5036870;28;20442;-87
2023/08/04 11:24:41;;;;;;;2.22;0.60;;;24.20;73.60;;;;;;5037278;28;20074;-87
2023/08/04 11:27:09;;;;;;;1.58;0.60;;;23.70;75.20;;;;;;5033515;28;20029;-87
2023/08/04 11:29:35;;;;;;;3.50;1.27;;;23.00;77.00;;;;;;5036993;28;20025;-87
2023/08/04 11:32:02;;;;;;;1.27;0.60;;;22.10;80.20;;;;;;5038131;28;20029;-87
2023/08/04 11:34:28;;;;;;;1.30;0.60;;;21.70;81.50;;;;;;5038246;28;20025;-88
2023/08/04 11:36:54;;;;;;;1.50;0.70;;;22.30;80.70;;;;;;5036084;28;20030;-87
2023/08/04 11:39:19;;;;;;;1.60;0.60;;;22.60;77.70;;;;;;5035408;28;20048;-86
2023/08/04 11:41:45;;;;;;;3.35;0.60;;;22.50;79.20;;;;;;5034977;28;20045;-86
2023/08/04 11:44:13;;;;;;;1.92;0.70;;;22.50;77.60;;;;;;5033165;28;20033;-86
2023/08/04 11:46:39;;;;;;;1.50;0.70;;;22.50;77.80;;;;;;5034028;28;20423;-86
2023/08/04 11:49:08;;;;;;;1.52;0.60;;;22.60;77.50;;;;;;5032587;28;20076;-86
2023/08/04 11:51:34;;;;;;;1.88;0.70;;;23.00;77.80;;;;;;5028983;28;20500;-88
2023/08/04 11:54:00;;;;;;;2.08;0.60;;;24.10;74.80;;;;;;5031908;28;20037;-87
2023/08/04 11:56:38;;;;;;;1.33;0.50;;;24.50;74.50;;;;;;5031149;28;20079;-87
2023/08/04 11:59:11;;;;;;;1.92;0.60;;;25.20;73.90;;;;;;5035528;28;20026;-86
2023/08/04 12:01:38;;;;;;;2.20;0.50;;;25.90;71.30;;;;;;5034616;28;20033;-88
2023/08/04 12:04:24;;;;;;;0.63;0.43;;;25.80;69.70;;;;;;5033141;28;20060;-86
2023/08/04 12:06:59;;;;;;;3.17;0.52;;;25.60;69.50;;;;;;5027204;28;20038;-87
2023/08/04 12:09:25;;;;;;;1.33;0.40;;;25.10;69.60;;;;;;5037372;28;20049;-88
2023/08/04 12:11:52;;;;;;;1.15;0.40;;;25.00;70.50;;;;;;5028179;28;20139;-88
2023/08/04 12:14:19;;;;;;;0.65;0.43;;;25.50;70.80;;;;;;5025222;28;20048;-88
2023/08/04 12:16:59;;;;;;;0.55;0.30;;;26.00;68.70;;;;;;5018980;28;20037;-87
2023/08/04 12:19:26;;;;;;;1.65;0.30;;;25.60;68.20;;;;;;5017432;28;20068;-89
2023/08/04 12:21:57;;;;;;;1.33;0.30;;;25.10;69.70;;;;;;5015583;28;20036;-88
2023/08/04 12:24:22;;;;;;;0.75;0.40;;;25.00;69.20;;;;;;5037165;28;20036;-88
2023/08/04 12:26:48;;;;;;;0.85;0.40;;;24.40;70.10;;;;;;5036048;28;20029;-88
2023/08/04 12:29:14;;;;;;;0.50;0.35;;;24.00;71.10;;;;;;5037477;28;20017;-88
2023/08/04 12:31:40;;;;;;;0.77;0.40;;;23.30;73.10;;;;;;5037156;28;20018;-88
2023/08/04 12:34:09;;;;;;;0.43;0.40;;;23.00;73.90;;;;;;5035991;28;20029;-88
2023/08/04 12:36:35;;;;;;;0.40;0.40;;;22.70;74.90;;;;;;5033568;28;20030;-86
2023/08/04 12:39:03;;;;;;;0.85;0.40;;;22.60;76.50;;;;;;5037008;28;20017;-87
2023/08/04 12:41:32;;;;;;;4.20;0.47;;;22.60;75.20;;;;;;5036754;28;20020;-86
2023/08/04 12:43:57;;;;;;;2.15;0.70;;;22.40;79.10;;;;;;5036384;28;20104;-90
2023/08/04 12:46:26;;;;;;;3.17;0.60;;;21.40;84.20;;;;;;5036929;28;20060;-89
2023/08/04 12:48:52;;;;;;;2.28;0.65;;;20.70;88.80;;;;;;5034333;28;20041;-87